sensor_id;sensor_type;location;lat;lon;timestamp;P1;durP1;ratioP1;P2;durP2;ratioP2
46266;SDS011;31998;48.798;15.066;2022-11-02T00:01:27;4.63;;;4.23;;
46266;SDS011;31998;48.798;15.066;2022-11-02T00:04:11;4.83;;;3.97;;
46266;SDS011;31998;48.798;15.066;2022-11-02T00:06:37;9.27;;;3.70;;
46266;SDS011;31998;48.798;15.066;2022-11-02T00:09:02;12.60;;;3.90;;
46266;SDS011;31998;48.798;15.066;2022-11-02T00:11:28;15.97;;;4.93;;
46266;SDS011;31998;48.798;15.066;2022-11-02T00:13:53;4.77;;;4.27;;
46266;SDS011;31998;48.798;15.066;2022-11-02T00:16:19;5.40;;;4.10;;
46266;SDS011;31998;48.798;15.066;2022-11-02T00:18:47;9.40;;;3.90;;
46266;SDS011;31998;48.798;15.066;2022-11-02T00:21:15;10.97;;;4.77;;
46266;SDS011;31998;48.798;15.066;2022-11-02T00:23:42;6.40;;;3.77;;
46266;SDS011;31998;48.798;15.066;2022-11-02T00:26:09;10.93;;;3.67;;
46266;SDS011;31998;48.798;15.066;2022-11-02T00:28:35;10.93;;;3.90;;
46266;SDS011;31998;48.798;15.066;2022-11-02T00:31:00;6.10;;;3.90;;
46266;SDS011;31998;48.798;15.066;2022-11-02T00:33:26;12.73;;;4.30;;
46266;SDS011;31998;48.798;15.066;2022-11-02T00:35:51;6.17;;;3.40;;
46266;SDS011;31998;48.798;15.066;2022-11-02T00:38:18;8.43;;;4.00;;
46266;SDS011;31998;48.798;15.066;2022-11-02T00:40:44;5.07;;;4.53;;
46266;SDS011;31998;48.798;15.066;2022-11-02T00:43:09;5.03;;;4.63;;
46266;SDS011;31998;48.798;15.066;2022-11-02T00:45:35;8.20;;;4.10;;
46266;SDS011;31998;48.798;15.066;2022-11-02T00:48:00;5.60;;;3.97;;
46266;SDS011;31998;48.798;15.066;2022-11-02T00:50:25;34.50;;;3.70;;
46266;SDS011;31998;48.798;15.066;2022-11-02T00:52:51;4.20;;;3.90;;
46266;SDS011;31998;48.798;15.066;2022-11-02T00:55:16;4.00;;;3.70;;
46266;SDS011;31998;48.798;15.066;2022-11-02T00:57:42;4.43;;;4.10;;
46266;SDS011;31998;48.798;15.066;2022-11-02T01:00:11;4.20;;;3.80;;
46266;SDS011;31998;48.798;15.066;2022-11-02T01:02:38;5.93;;;3.90;;
46266;SDS011;31998;48.798;15.066;2022-11-02T01:05:05;6.20;;;4.70;;
46266;SDS011;31998;48.798;15.066;2022-11-02T01:07:31;5.93;;;4.30;;
46266;SDS011;31998;48.798;15.066;2022-11-02T01:09:57;4.33;;;3.90;;
46266;SDS011;31998;48.798;15.066;2022-11-02T01:12:22;8.10;;;4.70;;
46266;SDS011;31998;48.798;15.066;2022-11-02T01:14:48;5.73;;;4.60;;
46266;SDS011;31998;48.798;15.066;2022-11-02T01:17:15;3.73;;;3.53;;
46266;SDS011;31998;48.798;15.066;2022-11-02T01:19:41;4.30;;;3.40;;
46266;SDS011;31998;48.798;15.066;2022-11-02T01:22:07;3.93;;;3.63;;
46266;SDS011;31998;48.798;15.066;2022-11-02T01:24:33;5.53;;;4.00;;
46266;SDS011;31998;48.798;15.066;2022-11-02T01:26:58;5.73;;;4.80;;
46266;SDS011;31998;48.798;15.066;2022-11-02T01:29:24;5.93;;;4.20;;
46266;SDS011;31998;48.798;15.066;2022-11-02T01:31:49;7.60;;;4.00;;
46266;SDS011;31998;48.798;15.066;2022-11-02T01:34:17;14.30;;;3.30;;
46266;SDS011;31998;48.798;15.066;2022-11-02T01:36:44;3.40;;;3.10;;
46266;SDS011;31998;48.798;15.066;2022-11-02T01:39:10;5.80;;;4.83;;
46266;SDS011;31998;48.798;15.066;2022-11-02T01:41:36;13.17;;;3.70;;
46266;SDS011;31998;48.798;15.066;2022-11-02T01:44:03;8.30;;;4.67;;
46266;SDS011;31998;48.798;15.066;2022-11-02T01:46:39;4.20;;;3.37;;
46266;SDS011;31998;48.798;15.066;2022-11-02T01:49:09;3.50;;;3.30;;
46266;SDS011;31998;48.798;15.066;2022-11-02T01:54:44;5.93;;;3.67;;
46266;SDS011;31998;48.798;15.066;2022-11-02T01:57:16;4.60;;;4.13;;
46266;SDS011;31998;48.798;15.066;2022-11-02T01:59:50;9.60;;;3.10;;
46266;SDS011;31998;48.798;15.066;2022-11-02T02:02:24;4.60;;;4.17;;
46266;SDS011;31998;48.798;15.066;2022-11-02T02:04:53;3.70;;;3.30;;
46266;SDS011;31998;48.798;15.066;2022-11-02T02:07:26;3.60;;;3.30;;
46266;SDS011;31998;48.798;15.066;2022-11-02T02:09:52;3.67;;;3.37;;
46266;SDS011;31998;48.798;15.066;2022-11-02T02:12:19;9.10;;;3.27;;
46266;SDS011;31998;48.798;15.066;2022-11-02T02:14:46;5.57;;;3.40;;
46266;SDS011;31998;48.798;15.066;2022-11-02T02:20:14;3.70;;;3.20;;
46266;SDS011;31998;48.798;15.066;2022-11-02T02:33:57;160.30;;;6.33;;
46266;SDS011;31998;48.798;15.066;2022-11-02T02:36:38;7.07;;;3.03;;
46266;SDS011;31998;48.798;15.066;2022-11-02T02:39:11;223.50;;;9.67;;
46266;SDS011;31998;48.798;15.066;2022-11-02T02:42:00;5.30;;;3.23;;
46266;SDS011;31998;48.798;15.066;2022-11-02T02:44:39;7.83;;;4.03;;
46266;SDS011;31998;48.798;15.066;2022-11-02T02:47:12;516.10;;;18.40;;
46266;SDS011;31998;48.798;15.066;2022-11-02T02:49:49;3.43;;;3.23;;
46266;SDS011;31998;48.798;15.066;2022-11-02T02:52:17;3.10;;;3.00;;
46266;SDS011;31998;48.798;15.066;2022-11-02T02:54:45;133.77;;;7.13;;
46266;SDS011;31998;48.798;15.066;2022-11-02T02:57:15;57.07;;;2.97;;
46266;SDS011;31998;48.798;15.066;2022-11-02T02:59:43;1.80;;;1.70;;
46266;SDS011;31998;48.798;15.066;2022-11-02T03:02:15;2.73;;;2.43;;
46266;SDS011;31998;48.798;15.066;2022-11-02T03:04:45;15.27;;;2.90;;
46266;SDS011;31998;48.798;15.066;2022-11-02T03:07:11;10.63;;;2.30;;
46266;SDS011;31998;48.798;15.066;2022-11-02T03:09:53;2.80;;;2.57;;
46266;SDS011;31998;48.798;15.066;2022-11-02T03:15:19;8.83;;;3.00;;
46266;SDS011;31998;48.798;15.066;2022-11-02T03:20:37;3.03;;;2.30;;
46266;SDS011;31998;48.798;15.066;2022-11-02T03:26:05;1.70;;;1.60;;
46266;SDS011;31998;48.798;15.066;2022-11-02T03:31:41;51.00;;;2.10;;
46266;SDS011;31998;48.798;15.066;2022-11-02T03:34:13;9.93;;;1.83;;
46266;SDS011;31998;48.798;15.066;2022-11-02T03:36:47;1.43;;;1.43;;
46266;SDS011;31998;48.798;15.066;2022-11-02T03:39:26;1.80;;;1.70;;
46266;SDS011;31998;48.798;15.066;2022-11-02T03:41:56;1.90;;;1.80;;
46266;SDS011;31998;48.798;15.066;2022-11-02T03:44:27;2.33;;;1.90;;
46266;SDS011;31998;48.798;15.066;2022-11-02T03:46:56;1.80;;;1.70;;
46266;SDS011;31998;48.798;15.066;2022-11-02T03:49:24;9.57;;;1.67;;
46266;SDS011;31998;48.798;15.066;2022-11-02T03:51:51;1.40;;;1.30;;
46266;SDS011;31998;48.798;15.066;2022-11-02T03:57:01;13.70;;;1.60;;
46266;SDS011;31998;48.798;15.066;2022-11-02T03:59:31;1.07;;;1.07;;
46266;SDS011;31998;48.798;15.066;2022-11-02T04:01:56;71.60;;;2.90;;
46266;SDS011;31998;48.798;15.066;2022-11-02T04:04:23;447.83;;;11.60;;
46266;SDS011;31998;48.798;15.066;2022-11-02T04:06:49;1.20;;;1.20;;
46266;SDS011;31998;48.798;15.066;2022-11-02T04:09:15;4.53;;;2.03;;
46266;SDS011;31998;48.798;15.066;2022-11-02T04:11:41;8.47;;;2.60;;
46266;SDS011;31998;48.798;15.066;2022-11-02T04:14:25;1.83;;;1.73;;
46266;SDS011;31998;48.798;15.066;2022-11-02T04:17:02;3.80;;;1.50;;
46266;SDS011;31998;48.798;15.066;2022-11-02T04:19:47;3.53;;;2.00;;
46266;SDS011;31998;48.798;15.066;2022-11-02T04:22:14;1.30;;;1.30;;
46266;SDS011;31998;48.798;15.066;2022-11-02T04:24:58;1.37;;;1.13;;
46266;SDS011;31998;48.798;15.066;2022-11-02T04:27:46;5.30;;;1.30;;
46266;SDS011;31998;48.798;15.066;2022-11-02T04:30:17;4.53;;;1.00;;
46266;SDS011;31998;48.798;15.066;2022-11-02T04:32:48;340.00;;;8.10;;
46266;SDS011;31998;48.798;15.066;2022-11-02T04:35:34;14.47;;;1.03;;
46266;SDS011;31998;48.798;15.066;2022-11-02T04:38:00;2.73;;;1.00;;
46266;SDS011;31998;48.798;15.066;2022-11-02T04:40:44;1.77;;;1.17;;
46266;SDS011;31998;48.798;15.066;2022-11-02T04:43:09;10.63;;;1.40;;
46266;SDS011;31998;48.798;15.066;2022-11-02T04:45:38;2.13;;;0.97;;
46266;SDS011;31998;48.798;15.066;2022-11-02T04:48:04;1.33;;;1.33;;
46266;SDS011;31998;48.798;15.066;2022-11-02T04:50:33;39.63;;;2.53;;
46266;SDS011;31998;48.798;15.066;2022-11-02T04:53:00;86.43;;;2.27;;
46266;SDS011;31998;48.798;15.066;2022-11-02T04:55:27;3.33;;;0.97;;
46266;SDS011;31998;48.798;15.066;2022-11-02T04:57:52;10.93;;;1.10;;
46266;SDS011;31998;48.798;15.066;2022-11-02T05:00:18;1.30;;;0.80;;
46266;SDS011;31998;48.798;15.066;2022-11-02T05:02:48;5.43;;;1.03;;
46266;SDS011;31998;48.798;15.066;2022-11-02T05:05:15;6.10;;;0.90;;
46266;SDS011;31998;48.798;15.066;2022-11-02T05:07:41;1.10;;;1.00;;
46266;SDS011;31998;48.798;15.066;2022-11-02T05:10:07;9.50;;;1.20;;
46266;SDS011;31998;48.798;15.066;2022-11-02T05:12:33;3.07;;;1.17;;
46266;SDS011;31998;48.798;15.066;2022-11-02T05:14:59;2.33;;;0.87;;
46266;SDS011;31998;48.798;15.066;2022-11-02T05:17:24;4.20;;;1.00;;
46266;SDS011;31998;48.798;15.066;2022-11-02T05:19:50;4.93;;;1.60;;
46266;SDS011;31998;48.798;15.066;2022-11-02T05:22:15;4.10;;;1.50;;
46266;SDS011;31998;48.798;15.066;2022-11-02T05:24:40;5.70;;;2.13;;
46266;SDS011;31998;48.798;15.066;2022-11-02T05:27:06;5.23;;;2.17;;
46266;SDS011;31998;48.798;15.066;2022-11-02T05:29:31;1.80;;;1.70;;
46266;SDS011;31998;48.798;15.066;2022-11-02T05:31:56;1.40;;;1.37;;
46266;SDS011;31998;48.798;15.066;2022-11-02T05:34:22;2.90;;;1.40;;
46266;SDS011;31998;48.798;15.066;2022-11-02T05:36:47;1.00;;;1.00;;
46266;SDS011;31998;48.798;15.066;2022-11-02T05:39:13;4.63;;;1.37;;
46266;SDS011;31998;48.798;15.066;2022-11-02T05:41:39;1.13;;;1.00;;
46266;SDS011;31998;48.798;15.066;2022-11-02T05:44:04;4.93;;;1.17;;
46266;SDS011;31998;48.798;15.066;2022-11-02T05:46:30;1.40;;;1.40;;
46266;SDS011;31998;48.798;15.066;2022-11-02T05:48:55;4.83;;;1.00;;
46266;SDS011;31998;48.798;15.066;2022-11-02T05:51:21;1.00;;;0.90;;
46266;SDS011;31998;48.798;15.066;2022-11-02T05:53:46;1.10;;;1.10;;
46266;SDS011;31998;48.798;15.066;2022-11-02T05:56:12;2.17;;;1.70;;
46266;SDS011;31998;48.798;15.066;2022-11-02T05:58:38;1.33;;;1.30;;
46266;SDS011;31998;48.798;15.066;2022-11-02T06:01:05;8.23;;;1.87;;
46266;SDS011;31998;48.798;15.066;2022-11-02T06:03:31;5.00;;;2.50;;
46266;SDS011;31998;48.798;15.066;2022-11-02T06:05:58;1.87;;;1.77;;
46266;SDS011;31998;48.798;15.066;2022-11-02T06:08:24;1.90;;;1.80;;
46266;SDS011;31998;48.798;15.066;2022-11-02T06:10:50;2.30;;;2.20;;
46266;SDS011;31998;48.798;15.066;2022-11-02T06:13:15;7.67;;;1.97;;
46266;SDS011;31998;48.798;15.066;2022-11-02T06:15:41;1.53;;;1.40;;
46266;SDS011;31998;48.798;15.066;2022-11-02T06:18:06;2.23;;;1.40;;
46266;SDS011;31998;48.798;15.066;2022-11-02T06:20:32;4.13;;;1.80;;
46266;SDS011;31998;48.798;15.066;2022-11-02T06:22:57;5.00;;;1.63;;
46266;SDS011;31998;48.798;15.066;2022-11-02T06:25:23;1.80;;;1.70;;
46266;SDS011;31998;48.798;15.066;2022-11-02T06:27:49;1.40;;;1.40;;
46266;SDS011;31998;48.798;15.066;2022-11-02T06:30:16;4.97;;;1.97;;
46266;SDS011;31998;48.798;15.066;2022-11-02T06:32:48;2.20;;;1.50;;
46266;SDS011;31998;48.798;15.066;2022-11-02T06:35:15;1.60;;;1.50;;
46266;SDS011;31998;48.798;15.066;2022-11-02T06:37:42;2.00;;;1.90;;
46266;SDS011;31998;48.798;15.066;2022-11-02T06:40:08;3.43;;;1.93;;
46266;SDS011;31998;48.798;15.066;2022-11-02T06:42:35;2.70;;;2.50;;
46266;SDS011;31998;48.798;15.066;2022-11-02T06:45:01;3.27;;;2.53;;
46266;SDS011;31998;48.798;15.066;2022-11-02T06:47:30;6.50;;;2.73;;
46266;SDS011;31998;48.798;15.066;2022-11-02T06:50:00;2.53;;;2.43;;
46266;SDS011;31998;48.798;15.066;2022-11-02T06:52:26;3.10;;;2.87;;
46266;SDS011;31998;48.798;15.066;2022-11-02T06:54:52;3.50;;;2.70;;
46266;SDS011;31998;48.798;15.066;2022-11-02T06:57:18;3.20;;;2.60;;
46266;SDS011;31998;48.798;15.066;2022-11-02T06:59:44;7.03;;;3.30;;
46266;SDS011;31998;48.798;15.066;2022-11-02T07:02:09;4.80;;;3.27;;
46266;SDS011;31998;48.798;15.066;2022-11-02T07:04:35;3.23;;;3.03;;
46266;SDS011;31998;48.798;15.066;2022-11-02T07:07:00;3.00;;;2.80;;
46266;SDS011;31998;48.798;15.066;2022-11-02T07:09:25;7.70;;;2.80;;
46266;SDS011;31998;48.798;15.066;2022-11-02T07:11:51;5.97;;;3.40;;
46266;SDS011;31998;48.798;15.066;2022-11-02T07:14:16;3.70;;;3.40;;
46266;SDS011;31998;48.798;15.066;2022-11-02T07:16:42;5.43;;;4.70;;
46266;SDS011;31998;48.798;15.066;2022-11-02T07:19:07;5.10;;;4.67;;
46266;SDS011;31998;48.798;15.066;2022-11-02T07:21:33;6.63;;;6.00;;
46266;SDS011;31998;48.798;15.066;2022-11-02T07:23:58;9.10;;;4.70;;
46266;SDS011;31998;48.798;15.066;2022-11-02T07:26:24;10.10;;;5.70;;
46266;SDS011;31998;48.798;15.066;2022-11-02T07:28:50;6.20;;;5.00;;
46266;SDS011;31998;48.798;15.066;2022-11-02T07:31:15;5.97;;;5.43;;
46266;SDS011;31998;48.798;15.066;2022-11-02T07:33:41;5.80;;;4.90;;
46266;SDS011;31998;48.798;15.066;2022-11-02T07:36:06;11.50;;;5.87;;
46266;SDS011;31998;48.798;15.066;2022-11-02T07:38:32;7.83;;;4.90;;
46266;SDS011;31998;48.798;15.066;2022-11-02T07:40:57;7.10;;;5.57;;
46266;SDS011;31998;48.798;15.066;2022-11-02T07:43:23;7.13;;;4.90;;
46266;SDS011;31998;48.798;15.066;2022-11-02T07:45:48;5.80;;;5.30;;
46266;SDS011;31998;48.798;15.066;2022-11-02T07:48:14;10.13;;;7.63;;
46266;SDS011;31998;48.798;15.066;2022-11-02T07:50:39;14.30;;;8.60;;
46266;SDS011;31998;48.798;15.066;2022-11-02T07:53:04;12.63;;;9.97;;
46266;SDS011;31998;48.798;15.066;2022-11-02T07:55:30;13.80;;;10.50;;
46266;SDS011;31998;48.798;15.066;2022-11-02T07:57:57;13.87;;;10.13;;
46266;SDS011;31998;48.798;15.066;2022-11-02T08:00:24;19.40;;;12.30;;
46266;SDS011;31998;48.798;15.066;2022-11-02T08:02:54;15.50;;;9.27;;
46266;SDS011;31998;48.798;15.066;2022-11-02T08:05:24;11.83;;;9.20;;
46266;SDS011;31998;48.798;15.066;2022-11-02T08:07:59;12.23;;;8.30;;
46266;SDS011;31998;48.798;15.066;2022-11-02T08:10:26;29.93;;;11.37;;
46266;SDS011;31998;48.798;15.066;2022-11-02T08:12:53;8.17;;;5.90;;
46266;SDS011;31998;48.798;15.066;2022-11-02T08:15:19;6.50;;;3.93;;
46266;SDS011;31998;48.798;15.066;2022-11-02T08:17:45;4.70;;;3.60;;
46266;SDS011;31998;48.798;15.066;2022-11-02T08:20:10;6.67;;;4.33;;
46266;SDS011;31998;48.798;15.066;2022-11-02T08:22:36;4.17;;;3.80;;
46266;SDS011;31998;48.798;15.066;2022-11-02T08:25:02;3.37;;;3.20;;
46266;SDS011;31998;48.798;15.066;2022-11-02T08:27:28;6.30;;;3.80;;
46266;SDS011;31998;48.798;15.066;2022-11-02T08:29:54;4.50;;;3.60;;
46266;SDS011;31998;48.798;15.066;2022-11-02T08:32:19;3.87;;;3.50;;
46266;SDS011;31998;48.798;15.066;2022-11-02T08:34:45;4.90;;;3.80;;
46266;SDS011;31998;48.798;15.066;2022-11-02T08:37:10;4.10;;;3.80;;
46266;SDS011;31998;48.798;15.066;2022-11-02T08:39:35;5.93;;;3.67;;
46266;SDS011;31998;48.798;15.066;2022-11-02T08:42:01;3.87;;;3.40;;
46266;SDS011;31998;48.798;15.066;2022-11-02T08:44:26;4.13;;;3.23;;
46266;SDS011;31998;48.798;15.066;2022-11-02T08:46:51;4.00;;;2.50;;
46266;SDS011;31998;48.798;15.066;2022-11-02T08:49:18;3.77;;;3.57;;
46266;SDS011;31998;48.798;15.066;2022-11-02T08:51:45;7.43;;;3.20;;
46266;SDS011;31998;48.798;15.066;2022-11-02T08:54:10;3.03;;;2.90;;
46266;SDS011;31998;48.798;15.066;2022-11-02T08:56:36;5.23;;;3.20;;
46266;SDS011;31998;48.798;15.066;2022-11-02T08:59:02;7.13;;;3.47;;
46266;SDS011;31998;48.798;15.066;2022-11-02T09:01:27;5.90;;;3.47;;
46266;SDS011;31998;48.798;15.066;2022-11-02T09:03:53;3.00;;;2.80;;
46266;SDS011;31998;48.798;15.066;2022-11-02T09:06:18;3.10;;;2.90;;
46266;SDS011;31998;48.798;15.066;2022-11-02T09:08:43;3.07;;;2.90;;
46266;SDS011;31998;48.798;15.066;2022-11-02T09:11:09;5.90;;;3.10;;
46266;SDS011;31998;48.798;15.066;2022-11-02T09:13:36;4.70;;;3.50;;
46266;SDS011;31998;48.798;15.066;2022-11-02T09:16:02;3.13;;;2.93;;
46266;SDS011;31998;48.798;15.066;2022-11-02T09:18:27;9.30;;;3.77;;
46266;SDS011;31998;48.798;15.066;2022-11-02T09:20:53;4.90;;;4.40;;
46266;SDS011;31998;48.798;15.066;2022-11-02T09:23:19;3.13;;;3.03;;
46266;SDS011;31998;48.798;15.066;2022-11-02T09:25:45;3.07;;;2.87;;
46266;SDS011;31998;48.798;15.066;2022-11-02T09:28:11;4.70;;;4.30;;
46266;SDS011;31998;48.798;15.066;2022-11-02T09:30:37;4.10;;;2.80;;
46266;SDS011;31998;48.798;15.066;2022-11-02T09:33:03;3.50;;;3.20;;
46266;SDS011;31998;48.798;15.066;2022-11-02T09:35:31;3.80;;;3.40;;
46266;SDS011;31998;48.798;15.066;2022-11-02T09:37:58;10.27;;;4.27;;
46266;SDS011;31998;48.798;15.066;2022-11-02T09:40:28;4.83;;;2.80;;
46266;SDS011;31998;48.798;15.066;2022-11-02T09:45:58;3.03;;;2.83;;
46266;SDS011;31998;48.798;15.066;2022-11-02T09:48:35;3.23;;;2.93;;
46266;SDS011;31998;48.798;15.066;2022-11-02T09:56:16;7.30;;;2.40;;
46266;SDS011;31998;48.798;15.066;2022-11-02T09:58:48;4.17;;;3.77;;
46266;SDS011;31998;48.798;15.066;2022-11-02T10:01:27;3.93;;;2.53;;
46266;SDS011;31998;48.798;15.066;2022-11-02T10:06:38;3.00;;;2.80;;
46266;SDS011;31998;48.798;15.066;2022-11-02T10:09:14;2.80;;;2.70;;
46266;SDS011;31998;48.798;15.066;2022-11-02T10:12:04;3.53;;;2.77;;
46266;SDS011;31998;48.798;15.066;2022-11-02T10:14:33;3.30;;;3.20;;
46266;SDS011;31998;48.798;15.066;2022-11-02T10:17:19;3.27;;;2.97;;
46266;SDS011;31998;48.798;15.066;2022-11-02T10:19:54;3.10;;;2.60;;
46266;SDS011;31998;48.798;15.066;2022-11-02T10:22:22;3.03;;;2.53;;
46266;SDS011;31998;48.798;15.066;2022-11-02T10:24:51;4.80;;;3.00;;
46266;SDS011;31998;48.798;15.066;2022-11-02T10:27:23;4.13;;;2.67;;
46266;SDS011;31998;48.798;15.066;2022-11-02T10:32:49;3.73;;;3.30;;
46266;SDS011;31998;48.798;15.066;2022-11-02T10:35:31;6.13;;;3.60;;
46266;SDS011;31998;48.798;15.066;2022-11-02T10:43:31;6.83;;;3.13;;
46266;SDS011;31998;48.798;15.066;2022-11-02T10:51:42;9.80;;;2.80;;
46266;SDS011;31998;48.798;15.066;2022-11-02T10:54:11;2.67;;;2.40;;
46266;SDS011;31998;48.798;15.066;2022-11-02T10:56:38;3.10;;;2.90;;
46266;SDS011;31998;48.798;15.066;2022-11-02T10:59:10;3.43;;;2.37;;
46266;SDS011;31998;48.798;15.066;2022-11-02T11:01:43;3.80;;;2.40;;
46266;SDS011;31998;48.798;15.066;2022-11-02T11:04:26;2.60;;;2.50;;
46266;SDS011;31998;48.798;15.066;2022-11-02T11:06:53;5.03;;;2.37;;
46266;SDS011;31998;48.798;15.066;2022-11-02T11:09:21;1.90;;;1.80;;
46266;SDS011;31998;48.798;15.066;2022-11-02T11:14:27;4.37;;;2.10;;
46266;SDS011;31998;48.798;15.066;2022-11-02T11:16:54;2.70;;;2.60;;
46266;SDS011;31998;48.798;15.066;2022-11-02T11:21:53;1.90;;;1.90;;
46266;SDS011;31998;48.798;15.066;2022-11-02T11:24:21;2.00;;;1.90;;
46266;SDS011;31998;48.798;15.066;2022-11-02T11:29:40;2.30;;;2.03;;
46266;SDS011;31998;48.798;15.066;2022-11-02T11:32:13;2.30;;;2.00;;
46266;SDS011;31998;48.798;15.066;2022-11-02T11:34:41;4.63;;;1.77;;
46266;SDS011;31998;48.798;15.066;2022-11-02T11:37:11;3.13;;;2.23;;
46266;SDS011;31998;48.798;15.066;2022-11-02T11:39:41;3.07;;;2.20;;
46266;SDS011;31998;48.798;15.066;2022-11-02T11:42:14;2.03;;;1.90;;
46266;SDS011;31998;48.798;15.066;2022-11-02T11:44:43;2.23;;;2.03;;
46266;SDS011;31998;48.798;15.066;2022-11-02T11:47:10;1.90;;;1.57;;
46266;SDS011;31998;48.798;15.066;2022-11-02T11:49:39;1.50;;;1.40;;
46266;SDS011;31998;48.798;15.066;2022-11-02T11:52:15;1.23;;;1.13;;
46266;SDS011;31998;48.798;15.066;2022-11-02T11:54:51;4.23;;;1.70;;
46266;SDS011;31998;48.798;15.066;2022-11-02T11:57:28;2.03;;;1.20;;
46266;SDS011;31998;48.798;15.066;2022-11-02T11:59:58;2.50;;;1.10;;
46266;SDS011;31998;48.798;15.066;2022-11-02T12:05:16;3.57;;;1.70;;
46266;SDS011;31998;48.798;15.066;2022-11-02T12:10:30;6.47;;;2.47;;
46266;SDS011;31998;48.798;15.066;2022-11-02T12:23:57;1.70;;;1.60;;
46266;SDS011;31998;48.798;15.066;2022-11-02T12:26:40;5.83;;;1.70;;
46266;SDS011;31998;48.798;15.066;2022-11-02T12:29:14;1.40;;;1.30;;
46266;SDS011;31998;48.798;15.066;2022-11-02T12:37:57;1.87;;;1.67;;
46266;SDS011;31998;48.798;15.066;2022-11-02T12:41:03;2.03;;;1.60;;
46266;SDS011;31998;48.798;15.066;2022-11-02T12:46:25;6.33;;;4.47;;
46266;SDS011;31998;48.798;15.066;2022-11-02T12:51:52;3.93;;;2.20;;
46266;SDS011;31998;48.798;15.066;2022-11-02T12:57:08;1.83;;;1.57;;
46266;SDS011;31998;48.798;15.066;2022-11-02T12:59:38;4.20;;;1.67;;
46266;SDS011;31998;48.798;15.066;2022-11-02T13:02:17;3.63;;;1.70;;
46266;SDS011;31998;48.798;15.066;2022-11-02T13:04:57;6.57;;;1.80;;
46266;SDS011;31998;48.798;15.066;2022-11-02T13:07:32;3.60;;;1.40;;
46266;SDS011;31998;48.798;15.066;2022-11-02T13:12:38;3.23;;;1.50;;
46266;SDS011;31998;48.798;15.066;2022-11-02T13:15:10;1.87;;;1.77;;
46266;SDS011;31998;48.798;15.066;2022-11-02T13:17:43;1.60;;;1.50;;
46266;SDS011;31998;48.798;15.066;2022-11-02T13:20:17;5.73;;;1.70;;
46266;SDS011;31998;48.798;15.066;2022-11-02T13:22:47;1.73;;;1.63;;
46266;SDS011;31998;48.798;15.066;2022-11-02T13:25:26;2.20;;;1.63;;
46266;SDS011;31998;48.798;15.066;2022-11-02T13:28:00;2.00;;;1.77;;
46266;SDS011;31998;48.798;15.066;2022-11-02T13:30:29;5.70;;;1.83;;
46266;SDS011;31998;48.798;15.066;2022-11-02T13:33:00;2.60;;;1.33;;
46266;SDS011;31998;48.798;15.066;2022-11-02T13:35:32;1.40;;;1.30;;
46266;SDS011;31998;48.798;15.066;2022-11-02T13:38:02;3.13;;;1.47;;
46266;SDS011;31998;48.798;15.066;2022-11-02T13:40:48;2.73;;;1.50;;
46266;SDS011;31998;48.798;15.066;2022-11-02T13:51:27;3.43;;;1.50;;
46266;SDS011;31998;48.798;15.066;2022-11-02T13:53:55;2.90;;;1.67;;
46266;SDS011;31998;48.798;15.066;2022-11-02T13:56:25;5.60;;;1.80;;
46266;SDS011;31998;48.798;15.066;2022-11-02T13:58:57;3.73;;;1.60;;
46266;SDS011;31998;48.798;15.066;2022-11-02T14:01:26;4.47;;;1.43;;
46266;SDS011;31998;48.798;15.066;2022-11-02T14:04:03;4.40;;;2.03;;
46266;SDS011;31998;48.798;15.066;2022-11-02T14:06:32;2.03;;;1.10;;
46266;SDS011;31998;48.798;15.066;2022-11-02T14:09:08;2.53;;;1.90;;
46266;SDS011;31998;48.798;15.066;2022-11-02T14:22:04;1.57;;;1.47;;
46266;SDS011;31998;48.798;15.066;2022-11-02T14:26:58;5.57;;;1.80;;
46266;SDS011;31998;48.798;15.066;2022-11-02T14:40:09;6.20;;;1.40;;
46266;SDS011;31998;48.798;15.066;2022-11-02T14:45:38;2.70;;;2.50;;
46266;SDS011;31998;48.798;15.066;2022-11-02T14:48:16;10.57;;;6.80;;
46266;SDS011;31998;48.798;15.066;2022-11-02T14:50:42;10.43;;;8.17;;
46266;SDS011;31998;48.798;15.066;2022-11-02T14:53:28;5.23;;;4.50;;
46266;SDS011;31998;48.798;15.066;2022-11-02T14:55:58;2.83;;;2.60;;
46266;SDS011;31998;48.798;15.066;2022-11-02T14:58:25;19.20;;;8.50;;
46266;SDS011;31998;48.798;15.066;2022-11-02T15:00:57;9.80;;;8.10;;
46266;SDS011;31998;48.798;15.066;2022-11-02T15:17:00;27.00;;;13.97;;
46266;SDS011;31998;48.798;15.066;2022-11-02T15:19:37;25.87;;;11.80;;
46266;SDS011;31998;48.798;15.066;2022-11-02T15:28:11;10.07;;;7.20;;
46266;SDS011;31998;48.798;15.066;2022-11-02T15:30:43;13.63;;;9.20;;
46266;SDS011;31998;48.798;15.066;2022-11-02T15:33:30;12.37;;;7.83;;
46266;SDS011;31998;48.798;15.066;2022-11-02T15:36:00;14.50;;;9.27;;
46266;SDS011;31998;48.798;15.066;2022-11-02T15:38:28;24.10;;;16.00;;
46266;SDS011;31998;48.798;15.066;2022-11-02T15:46:22;18.50;;;9.90;;
46266;SDS011;31998;48.798;15.066;2022-11-02T15:48:55;11.50;;;5.10;;
46266;SDS011;31998;48.798;15.066;2022-11-02T15:51:35;6.60;;;4.77;;
46266;SDS011;31998;48.798;15.066;2022-11-02T15:57:02;5.60;;;4.07;;
46266;SDS011;31998;48.798;15.066;2022-11-02T16:04:46;6.40;;;4.27;;
46266;SDS011;31998;48.798;15.066;2022-11-02T16:07:14;9.53;;;2.87;;
46266;SDS011;31998;48.798;15.066;2022-11-02T16:09:42;7.03;;;3.00;;
46266;SDS011;31998;48.798;15.066;2022-11-02T16:14:50;4.20;;;2.27;;
46266;SDS011;31998;48.798;15.066;2022-11-02T16:17:28;6.50;;;2.53;;
46266;SDS011;31998;48.798;15.066;2022-11-02T16:22:45;5.93;;;2.43;;
46266;SDS011;31998;48.798;15.066;2022-11-02T16:25:23;2.40;;;2.27;;
46266;SDS011;31998;48.798;15.066;2022-11-02T16:27:49;1.80;;;1.70;;
46266;SDS011;31998;48.798;15.066;2022-11-02T16:30:19;2.77;;;2.57;;
46266;SDS011;31998;48.798;15.066;2022-11-02T16:32:46;16.23;;;2.83;;
46266;SDS011;31998;48.798;15.066;2022-11-02T16:35:23;3.40;;;3.07;;
46266;SDS011;31998;48.798;15.066;2022-11-02T16:37:50;4.67;;;3.00;;
46266;SDS011;31998;48.798;15.066;2022-11-02T16:40:16;140.70;;;55.73;;
46266;SDS011;31998;48.798;15.066;2022-11-02T16:42:47;152.70;;;64.83;;
46266;SDS011;31998;48.798;15.066;2022-11-02T16:45:28;98.27;;;42.93;;
46266;SDS011;31998;48.798;15.066;2022-11-02T16:47:56;20.00;;;11.17;;
46266;SDS011;31998;48.798;15.066;2022-11-02T16:50:25;14.10;;;7.67;;
46266;SDS011;31998;48.798;15.066;2022-11-02T16:52:55;12.07;;;6.90;;
46266;SDS011;31998;48.798;15.066;2022-11-02T16:55:38;13.93;;;9.63;;
46266;SDS011;31998;48.798;15.066;2022-11-02T16:58:11;14.67;;;7.93;;
46266;SDS011;31998;48.798;15.066;2022-11-02T17:00:54;15.40;;;7.03;;
46266;SDS011;31998;48.798;15.066;2022-11-02T17:03:22;9.67;;;6.20;;
46266;SDS011;31998;48.798;15.066;2022-11-02T17:05:50;11.27;;;6.80;;
46266;SDS011;31998;48.798;15.066;2022-11-02T17:08:25;8.60;;;6.20;;
46266;SDS011;31998;48.798;15.066;2022-11-02T17:10:55;12.37;;;8.87;;
46266;SDS011;31998;48.798;15.066;2022-11-02T17:13:22;16.43;;;8.37;;
46266;SDS011;31998;48.798;15.066;2022-11-02T17:15:51;9.87;;;8.37;;
46266;SDS011;31998;48.798;15.066;2022-11-02T17:20:44;11.70;;;6.93;;
46266;SDS011;31998;48.798;15.066;2022-11-02T17:23:44;12.00;;;6.93;;
46266;SDS011;31998;48.798;15.066;2022-11-02T17:28:51;6.90;;;6.10;;
46266;SDS011;31998;48.798;15.066;2022-11-02T17:33:58;7.03;;;6.33;;
46266;SDS011;31998;48.798;15.066;2022-11-02T17:36:26;6.50;;;5.90;;
46266;SDS011;31998;48.798;15.066;2022-11-02T17:38:52;5.77;;;4.97;;
46266;SDS011;31998;48.798;15.066;2022-11-02T17:41:19;7.77;;;4.70;;
46266;SDS011;31998;48.798;15.066;2022-11-02T17:44:03;4.03;;;3.73;;